createdAt,value
2024-01-11T00:02:06.276Z,1
2024-01-11T00:14:06.186Z,1
2024-01-11T00:26:06.171Z,1
2024-01-11T00:38:06.062Z,1
2024-01-11T00:50:06.149Z,1
2024-01-11T04:50:06.473Z,1
2024-01-11T05:02:06.450Z,1
2024-01-11T05:14:06.367Z,1
2024-01-11T05:26:06.584Z,1
2024-01-11T05:38:06.691Z,1
2024-01-11T05:50:06.444Z,1
2024-01-11T06:02:06.427Z,1
2024-01-11T06:14:06.603Z,1
2024-01-11T06:26:06.549Z,1
2024-01-11T06:38:07.903Z,1
2024-01-11T06:50:06.643Z,1
2024-01-11T07:02:06.603Z,1
2024-01-11T07:14:06.542Z,1
2024-01-11T07:26:06.511Z,1
2024-01-11T07:38:06.618Z,1
2024-01-11T07:50:06.656Z,1
2024-01-11T08:02:06.536Z,1
2024-01-11T08:14:06.770Z,1
2024-01-11T08:26:06.860Z,1
2024-01-11T08:38:06.811Z,1
2024-01-11T08:50:06.649Z,1
2024-01-11T09:02:13.455Z,1
2024-01-11T09:14:06.750Z,1
2024-01-11T09:26:06.728Z,1
2024-01-11T09:38:06.648Z,1
2024-01-11T09:50:06.803Z,84
2024-01-11T10:02:06.960Z,87
2024-01-11T10:14:06.720Z,89
2024-01-11T10:26:06.703Z,87
2024-01-11T10:38:06.850Z,87
2024-01-11T10:50:06.700Z,89
2024-01-11T11:02:06.830Z,88
2024-01-11T11:14:06.810Z,90
2024-01-11T11:26:06.801Z,92
2024-01-11T11:38:06.914Z,90
2024-01-11T11:50:06.952Z,88
2024-01-11T12:02:06.919Z,89
2024-01-11T12:14:06.789Z,90
2024-01-11T12:26:07.054Z,90
2024-01-11T12:38:07.249Z,88
2024-01-11T12:50:06.931Z,89
2024-01-11T13:02:06.851Z,89
2024-01-11T13:14:06.989Z,88
2024-01-11T13:26:06.994Z,86
2024-01-11T13:38:06.844Z,87
2024-01-11T13:50:07.109Z,89
2024-01-11T14:02:07.058Z,89
2024-01-11T14:14:07.292Z,89
2024-01-11T14:26:06.920Z,88
2024-01-11T14:38:07.130Z,87
2024-01-11T14:50:07.076Z,85
2024-01-11T15:02:07.084Z,83
2024-01-11T15:14:06.913Z,77
2024-01-11T15:26:07.143Z,70
2024-01-11T15:38:07.070Z,66
2024-01-11T15:50:07.076Z,65
2024-01-11T16:02:07.708Z,58
2024-01-11T16:14:07.143Z,47
2024-01-11T16:26:07.114Z,30
2024-01-11T16:38:07.270Z,15
2024-01-11T16:50:07.464Z,3
2024-01-11T17:02:07.152Z,1
2024-01-11T17:14:07.124Z,1
2024-01-11T17:26:07.124Z,1
2024-01-11T17:38:07.315Z,1
2024-01-11T17:50:07.292Z,1
2024-01-11T18:02:07.262Z,1
2024-01-11T18:14:07.191Z,1
2024-01-11T18:26:07.374Z,1
2024-01-11T18:38:07.278Z,1
2024-01-11T18:50:07.269Z,1
2024-01-11T19:02:07.261Z,1
2024-01-11T19:14:07.129Z,1
2024-01-11T19:26:07.384Z,1
2024-01-11T19:38:07.274Z,1
2024-01-11T19:50:07.331Z,1
2024-01-11T20:02:07.192Z,1
2024-01-11T20:14:07.393Z,1
2024-01-11T20:26:07.343Z,1
2024-01-11T20:38:07.350Z,1
2024-01-11T20:50:07.620Z,1
2024-01-11T21:02:07.451Z,1
2024-01-11T21:14:07.410Z,1
2024-01-11T21:26:07.365Z,1
2024-01-11T21:38:07.450Z,1
2024-01-11T21:50:07.394Z,1
2024-01-11T22:02:07.380Z,1
2024-01-11T22:14:07.385Z,1
2024-01-11T22:26:07.520Z,1
2024-01-11T22:38:07.439Z,1
2024-01-11T22:50:07.422Z,1
2024-01-11T23:02:07.604Z,1
2024-01-11T23:14:07.536Z,1
2024-01-11T23:26:07.517Z,1
2024-01-11T23:38:07.445Z,1
2024-01-11T23:50:07.718Z,1
